sensor_id;sensor_type;location;lat;lon;timestamp;temperature;humidity
69589;SHT31;56792;50.644;17.984;2024-02-16T00:00:06;7.46;88.26
69589;SHT31;56792;50.644;17.984;2024-02-16T00:02:40;7.44;88.26
69589;SHT31;56792;50.644;17.984;2024-02-16T00:05:12;7.45;88.34
69589;SHT31;56792;50.644;17.984;2024-02-16T00:07:43;7.46;88.39
69589;SHT31;56792;50.644;17.984;2024-02-16T00:10:15;7.46;88.43
69589;SHT31;56792;50.644;17.984;2024-02-16T00:12:46;7.43;88.30
69589;SHT31;56792;50.644;17.984;2024-02-16T00:15:18;7.43;88.35
69589;SHT31;56792;50.644;17.984;2024-02-16T00:17:49;7.45;88.37
69589;SHT31;56792;50.644;17.984;2024-02-16T00:20:20;7.44;88.33
69589;SHT31;56792;50.644;17.984;2024-02-16T00:22:51;7.44;88.35
69589;SHT31;56792;50.644;17.984;2024-02-16T00:25:22;7.44;88.28
69589;SHT31;56792;50.644;17.984;2024-02-16T00:27:54;7.45;88.38
69589;SHT31;56792;50.644;17.984;2024-02-16T00:30:25;7.44;88.38
69589;SHT31;56792;50.644;17.984;2024-02-16T00:32:56;7.49;88.52
69589;SHT31;56792;50.644;17.984;2024-02-16T00:35:27;7.52;88.49
69589;SHT31;56792;50.644;17.984;2024-02-16T00:37:59;7.54;88.53
69589;SHT31;56792;50.644;17.984;2024-02-16T00:40:31;7.57;88.50
69589;SHT31;56792;50.644;17.984;2024-02-16T00:43:02;7.55;88.37
69589;SHT31;56792;50.644;17.984;2024-02-16T00:45:33;7.53;88.34
69589;SHT31;56792;50.644;17.984;2024-02-16T00:48:07;7.52;88.32
69589;SHT31;56792;50.644;17.984;2024-02-16T00:50:39;7.53;88.37
69589;SHT31;56792;50.644;17.984;2024-02-16T00:53:10;7.51;88.26
69589;SHT31;56792;50.644;17.984;2024-02-16T00:55:41;7.50;88.31
69589;SHT31;56792;50.644;17.984;2024-02-16T00:58:12;7.51;88.35
69589;SHT31;56792;50.644;17.984;2024-02-16T01:00:44;7.53;88.39
69589;SHT31;56792;50.644;17.984;2024-02-16T01:03:15;7.58;88.42
69589;SHT31;56792;50.644;17.984;2024-02-16T01:05:46;7.60;88.34
69589;SHT31;56792;50.644;17.984;2024-02-16T01:08:18;7.60;88.36
69589;SHT31;56792;50.644;17.984;2024-02-16T01:10:49;7.61;88.32
69589;SHT31;56792;50.644;17.984;2024-02-16T01:13:21;7.64;88.35
69589;SHT31;56792;50.644;17.984;2024-02-16T01:15:52;7.63;88.28
69589;SHT31;56792;50.644;17.984;2024-02-16T01:18:23;7.63;88.25
69589;SHT31;56792;50.644;17.984;2024-02-16T01:20:56;7.64;88.24
69589;SHT31;56792;50.644;17.984;2024-02-16T01:23:27;7.63;88.22
69589;SHT31;56792;50.644;17.984;2024-02-16T01:25:59;7.64;88.22
69589;SHT31;56792;50.644;17.984;2024-02-16T01:28:30;7.66;88.31
69589;SHT31;56792;50.644;17.984;2024-02-16T01:31:01;7.66;88.31
69589;SHT31;56792;50.644;17.984;2024-02-16T01:33:33;7.63;88.26
69589;SHT31;56792;50.644;17.984;2024-02-16T01:36:07;7.59;88.18
69589;SHT31;56792;50.644;17.984;2024-02-16T01:38:38;7.52;88.12
69589;SHT31;56792;50.644;17.984;2024-02-16T01:41:09;7.48;88.18
69589;SHT31;56792;50.644;17.984;2024-02-16T01:43:41;7.43;88.23
69589;SHT31;56792;50.644;17.984;2024-02-16T01:46:12;7.41;88.28
69589;SHT31;56792;50.644;17.984;2024-02-16T01:48:44;7.40;88.39
69589;SHT31;56792;50.644;17.984;2024-02-16T01:51:16;7.39;88.40
69589;SHT31;56792;50.644;17.984;2024-02-16T01:53:49;7.38;88.41
69589;SHT31;56792;50.644;17.984;2024-02-16T01:56:22;7.37;88.49
69589;SHT31;56792;50.644;17.984;2024-02-16T01:58:53;7.36;88.50
69589;SHT31;56792;50.644;17.984;2024-02-16T02:01:25;7.37;88.60
69589;SHT31;56792;50.644;17.984;2024-02-16T02:03:56;7.34;88.52
69589;SHT31;56792;50.644;17.984;2024-02-16T02:06:27;7.33;88.56
69589;SHT31;56792;50.644;17.984;2024-02-16T02:08:59;7.28;88.38
69589;SHT31;56792;50.644;17.984;2024-02-16T02:11:30;7.28;88.61
69589;SHT31;56792;50.644;17.984;2024-02-16T02:14:01;7.32;88.67
69589;SHT31;56792;50.644;17.984;2024-02-16T02:16:32;7.34;88.70
69589;SHT31;56792;50.644;17.984;2024-02-16T02:19:04;7.35;88.67
69589;SHT31;56792;50.644;17.984;2024-02-16T02:21:35;7.32;88.50
69589;SHT31;56792;50.644;17.984;2024-02-16T02:24:06;7.30;88.52
69589;SHT31;56792;50.644;17.984;2024-02-16T02:26:37;7.29;88.49
69589;SHT31;56792;50.644;17.984;2024-02-16T02:29:09;7.26;88.38
69589;SHT31;56792;50.644;17.984;2024-02-16T02:31:40;7.21;88.30
69589;SHT31;56792;50.644;17.984;2024-02-16T02:34:11;7.17;88.28
69589;SHT31;56792;50.644;17.984;2024-02-16T02:36:42;7.14;88.31
69589;SHT31;56792;50.644;17.984;2024-02-16T02:39:13;7.15;88.50
69589;SHT31;56792;50.644;17.984;2024-02-16T02:41:45;7.17;88.53
69589;SHT31;56792;50.644;17.984;2024-02-16T02:44:16;7.17;88.53
69589;SHT31;56792;50.644;17.984;2024-02-16T02:46:47;7.19;88.61
69589;SHT31;56792;50.644;17.984;2024-02-16T02:49:18;7.21;88.71
69589;SHT31;56792;50.644;17.984;2024-02-16T02:51:50;7.23;88.73
69589;SHT31;56792;50.644;17.984;2024-02-16T02:54:21;7.22;88.64
69589;SHT31;56792;50.644;17.984;2024-02-16T02:56:52;7.22;88.66
69589;SHT31;56792;50.644;17.984;2024-02-16T02:59:23;7.21;88.71
69589;SHT31;56792;50.644;17.984;2024-02-16T03:01:55;7.20;88.68
69589;SHT31;56792;50.644;17.984;2024-02-16T03:04:26;7.19;88.74
69589;SHT31;56792;50.644;17.984;2024-02-16T03:06:57;7.17;88.68
69589;SHT31;56792;50.644;17.984;2024-02-16T03:09:28;7.16;88.68
69589;SHT31;56792;50.644;17.984;2024-02-16T03:11:59;7.12;88.62
69589;SHT31;56792;50.644;17.984;2024-02-16T03:14:31;7.09;88.62
69589;SHT31;56792;50.644;17.984;2024-02-16T03:17:02;7.06;88.61
69589;SHT31;56792;50.644;17.984;2024-02-16T03:19:33;7.02;88.60
69589;SHT31;56792;50.644;17.984;2024-02-16T03:22:04;6.97;88.61
69589;SHT31;56792;50.644;17.984;2024-02-16T03:24:36;6.93;88.56
69589;SHT31;56792;50.644;17.984;2024-02-16T03:27:07;6.92;88.63
69589;SHT31;56792;50.644;17.984;2024-02-16T03:29:38;6.89;88.52
69589;SHT31;56792;50.644;17.984;2024-02-16T03:32:10;6.86;88.49
69589;SHT31;56792;50.644;17.984;2024-02-16T03:34:41;6.84;88.50
69589;SHT31;56792;50.644;17.984;2024-02-16T03:37:12;6.84;88.48
69589;SHT31;56792;50.644;17.984;2024-02-16T03:39:43;6.82;88.46
69589;SHT31;56792;50.644;17.984;2024-02-16T03:42:14;6.80;88.50
69589;SHT31;56792;50.644;17.984;2024-02-16T03:44:47;6.77;88.44
69589;SHT31;56792;50.644;17.984;2024-02-16T03:47:18;6.71;88.36
69589;SHT31;56792;50.644;17.984;2024-02-16T03:49:49;6.66;88.40
69589;SHT31;56792;50.644;17.984;2024-02-16T03:52:20;6.64;88.55
69589;SHT31;56792;50.644;17.984;2024-02-16T03:54:52;6.64;88.51
69589;SHT31;56792;50.644;17.984;2024-02-16T03:57:23;6.64;88.54
69589;SHT31;56792;50.644;17.984;2024-02-16T03:59:54;6.66;88.52
69589;SHT31;56792;50.644;17.984;2024-02-16T04:02:25;6.67;88.56
69589;SHT31;56792;50.644;17.984;2024-02-16T04:04:57;6.66;88.49
69589;SHT31;56792;50.644;17.984;2024-02-16T04:07:30;6.63;88.51
69589;SHT31;56792;50.644;17.984;2024-02-16T04:10:01;6.65;88.54
69589;SHT31;56792;50.644;17.984;2024-02-16T04:12:33;6.64;88.44
69589;SHT31;56792;50.644;17.984;2024-02-16T04:15:05;6.65;88.44
69589;SHT31;56792;50.644;17.984;2024-02-16T04:17:37;6.67;88.49
69589;SHT31;56792;50.644;17.984;2024-02-16T04:20:08;6.69;88.42
69589;SHT31;56792;50.644;17.984;2024-02-16T04:22:42;6.67;88.26
69589;SHT31;56792;50.644;17.984;2024-02-16T04:25:13;6.61;88.20
69589;SHT31;56792;50.644;17.984;2024-02-16T04:27:44;6.60;88.33
69589;SHT31;56792;50.644;17.984;2024-02-16T04:30:16;6.58;88.26
69589;SHT31;56792;50.644;17.984;2024-02-16T04:32:47;6.61;88.30
69589;SHT31;56792;50.644;17.984;2024-02-16T04:35:19;6.60;88.22
69589;SHT31;56792;50.644;17.984;2024-02-16T04:37:50;6.60;88.30
69589;SHT31;56792;50.644;17.984;2024-02-16T04:40:21;6.59;88.23
69589;SHT31;56792;50.644;17.984;2024-02-16T04:42:53;6.57;88.15
69589;SHT31;56792;50.644;17.984;2024-02-16T04:45:24;6.54;88.16
69589;SHT31;56792;50.644;17.984;2024-02-16T04:47:56;6.55;88.24
69589;SHT31;56792;50.644;17.984;2024-02-16T04:50:32;6.55;88.23
69589;SHT31;56792;50.644;17.984;2024-02-16T04:53:04;6.56;88.20
69589;SHT31;56792;50.644;17.984;2024-02-16T04:55:35;6.57;88.20
69589;SHT31;56792;50.644;17.984;2024-02-16T04:58:07;6.57;88.15
69589;SHT31;56792;50.644;17.984;2024-02-16T05:00:38;6.58;88.13
69589;SHT31;56792;50.644;17.984;2024-02-16T05:03:09;6.61;88.16
69589;SHT31;56792;50.644;17.984;2024-02-16T05:05:40;6.64;88.07
69589;SHT31;56792;50.644;17.984;2024-02-16T05:08:12;6.66;87.97
69589;SHT31;56792;50.644;17.984;2024-02-16T05:10:43;6.66;87.91
69589;SHT31;56792;50.644;17.984;2024-02-16T05:13:14;6.67;87.86
69589;SHT31;56792;50.644;17.984;2024-02-16T05:15:45;6.67;87.75
69589;SHT31;56792;50.644;17.984;2024-02-16T05:18:17;6.65;87.68
69589;SHT31;56792;50.644;17.984;2024-02-16T05:20:51;6.68;87.68
69589;SHT31;56792;50.644;17.984;2024-02-16T05:23:22;6.71;87.58
69589;SHT31;56792;50.644;17.984;2024-02-16T05:25:54;6.72;87.50
69589;SHT31;56792;50.644;17.984;2024-02-16T05:28:25;6.74;87.38
69589;SHT31;56792;50.644;17.984;2024-02-16T05:30:56;6.71;87.36
69589;SHT31;56792;50.644;17.984;2024-02-16T05:33:41;6.70;87.38
69589;SHT31;56792;50.644;17.984;2024-02-16T05:36:17;6.74;87.42
69589;SHT31;56792;50.644;17.984;2024-02-16T05:38:51;6.81;87.23
69589;SHT31;56792;50.644;17.984;2024-02-16T05:41:23;6.82;87.10
69589;SHT31;56792;50.644;17.984;2024-02-16T05:43:54;6.85;86.99
69589;SHT31;56792;50.644;17.984;2024-02-16T05:46:25;6.87;86.83
69589;SHT31;56792;50.644;17.984;2024-02-16T05:48:56;6.83;86.75
69589;SHT31;56792;50.644;17.984;2024-02-16T05:51:34;6.81;86.78
69589;SHT31;56792;50.644;17.984;2024-02-16T05:54:06;6.83;86.64
69589;SHT31;56792;50.644;17.984;2024-02-16T05:56:37;6.85;86.53
69589;SHT31;56792;50.644;17.984;2024-02-16T05:59:08;6.86;86.40
69589;SHT31;56792;50.644;17.984;2024-02-16T06:01:39;6.87;86.23
69589;SHT31;56792;50.644;17.984;2024-02-16T06:04:10;6.88;86.16
69589;SHT31;56792;50.644;17.984;2024-02-16T06:06:42;6.89;86.03
69589;SHT31;56792;50.644;17.984;2024-02-16T06:09:13;6.89;85.86
69589;SHT31;56792;50.644;17.984;2024-02-16T06:11:44;6.95;85.64
69589;SHT31;56792;50.644;17.984;2024-02-16T06:14:16;6.98;85.44
69589;SHT31;56792;50.644;17.984;2024-02-16T06:16:49;6.97;85.31
69589;SHT31;56792;50.644;17.984;2024-02-16T06:19:20;7.00;85.20
69589;SHT31;56792;50.644;17.984;2024-02-16T06:21:52;7.06;84.77
69589;SHT31;56792;50.644;17.984;2024-02-16T06:24:24;7.10;84.54
69589;SHT31;56792;50.644;17.984;2024-02-16T06:26:55;7.14;84.20
69589;SHT31;56792;50.644;17.984;2024-02-16T06:29:27;7.20;83.85
69589;SHT31;56792;50.644;17.984;2024-02-16T06:31:58;7.26;83.64
69589;SHT31;56792;50.644;17.984;2024-02-16T06:34:29;7.29;83.46
69589;SHT31;56792;50.644;17.984;2024-02-16T06:37:01;7.32;83.22
69589;SHT31;56792;50.644;17.984;2024-02-16T06:39:32;7.35;83.12
69589;SHT31;56792;50.644;17.984;2024-02-16T06:42:04;7.37;82.93
69589;SHT31;56792;50.644;17.984;2024-02-16T06:44:38;7.40;82.74
69589;SHT31;56792;50.644;17.984;2024-02-16T06:47:10;7.47;82.35
69589;SHT31;56792;50.644;17.984;2024-02-16T06:49:41;7.53;82.22
69589;SHT31;56792;50.644;17.984;2024-02-16T06:52:13;7.59;81.89
69589;SHT31;56792;50.644;17.984;2024-02-16T06:54:44;7.66;81.53
69589;SHT31;56792;50.644;17.984;2024-02-16T06:57:16;7.76;80.89
69589;SHT31;56792;50.644;17.984;2024-02-16T06:59:47;7.84;80.51
69589;SHT31;56792;50.644;17.984;2024-02-16T07:02:19;7.90;80.23
69589;SHT31;56792;50.644;17.984;2024-02-16T07:04:50;7.94;80.17
69589;SHT31;56792;50.644;17.984;2024-02-16T07:07:21;7.99;80.00
69589;SHT31;56792;50.644;17.984;2024-02-16T07:09:52;8.06;79.49
69589;SHT31;56792;50.644;17.984;2024-02-16T07:12:24;8.13;79.05
69589;SHT31;56792;50.644;17.984;2024-02-16T07:14:55;8.26;78.26
69589;SHT31;56792;50.644;17.984;2024-02-16T07:17:26;8.35;78.15
69589;SHT31;56792;50.644;17.984;2024-02-16T07:19:57;8.43;77.91
69589;SHT31;56792;50.644;17.984;2024-02-16T07:22:30;8.49;77.63
69589;SHT31;56792;50.644;17.984;2024-02-16T07:25:01;8.58;77.52
69589;SHT31;56792;50.644;17.984;2024-02-16T07:27:35;8.65;77.23
69589;SHT31;56792;50.644;17.984;2024-02-16T07:30:06;8.73;76.95
69589;SHT31;56792;50.644;17.984;2024-02-16T07:32:40;8.84;76.15
69589;SHT31;56792;50.644;17.984;2024-02-16T07:35:16;8.94;75.80
69589;SHT31;56792;50.644;17.984;2024-02-16T07:37:50;9.04;75.05
69589;SHT31;56792;50.644;17.984;2024-02-16T07:40:21;9.10;75.39
69589;SHT31;56792;50.644;17.984;2024-02-16T07:42:53;9.16;75.43
69589;SHT31;56792;50.644;17.984;2024-02-16T07:45:24;9.19;75.58
69589;SHT31;56792;50.644;17.984;2024-02-16T07:47:55;9.21;75.27
69589;SHT31;56792;50.644;17.984;2024-02-16T07:50:31;9.29;74.43
69589;SHT31;56792;50.644;17.984;2024-02-16T07:53:02;9.35;73.59
69589;SHT31;56792;50.644;17.984;2024-02-16T07:55:36;9.45;73.66
69589;SHT31;56792;50.644;17.984;2024-02-16T07:58:07;9.51;74.12
69589;SHT31;56792;50.644;17.984;2024-02-16T08:00:39;9.56;72.85
69589;SHT31;56792;50.644;17.984;2024-02-16T08:03:10;9.64;73.31
69589;SHT31;56792;50.644;17.984;2024-02-16T08:05:41;9.69;72.93
69589;SHT31;56792;50.644;17.984;2024-02-16T08:08:13;9.76;72.48
69589;SHT31;56792;50.644;17.984;2024-02-16T08:10:44;9.83;73.00
69589;SHT31;56792;50.644;17.984;2024-02-16T08:13:15;9.88;72.86
69589;SHT31;56792;50.644;17.984;2024-02-16T08:15:47;9.93;72.82
69589;SHT31;56792;50.644;17.984;2024-02-16T08:18:18;9.95;72.24
69589;SHT31;56792;50.644;17.984;2024-02-16T08:20:50;10.02;72.14
69589;SHT31;56792;50.644;17.984;2024-02-16T08:23:21;10.09;72.07
69589;SHT31;56792;50.644;17.984;2024-02-16T08:25:52;10.14;71.97
69589;SHT31;56792;50.644;17.984;2024-02-16T08:28:23;10.18;72.13
69589;SHT31;56792;50.644;17.984;2024-02-16T08:30:55;10.26;71.94
69589;SHT31;56792;50.644;17.984;2024-02-16T08:33:26;10.36;70.80
69589;SHT31;56792;50.644;17.984;2024-02-16T08:35:58;10.42;71.38
69589;SHT31;56792;50.644;17.984;2024-02-16T08:38:29;10.52;70.70
69589;SHT31;56792;50.644;17.984;2024-02-16T08:41:00;10.62;70.01
69589;SHT31;56792;50.644;17.984;2024-02-16T08:43:31;10.72;69.76
69589;SHT31;56792;50.644;17.984;2024-02-16T08:46:03;10.79;69.92
69589;SHT31;56792;50.644;17.984;2024-02-16T08:48:35;10.85;69.70
69589;SHT31;56792;50.644;17.984;2024-02-16T08:51:06;10.90;69.57
69589;SHT31;56792;50.644;17.984;2024-02-16T08:53:37;10.98;69.86
69589;SHT31;56792;50.644;17.984;2024-02-16T08:56:10;11.06;69.05
69589;SHT31;56792;50.644;17.984;2024-02-16T08:58:42;11.10;68.47
69589;SHT31;56792;50.644;17.984;2024-02-16T09:01:33;11.13;68.24
69589;SHT31;56792;50.644;17.984;2024-02-16T09:04:07;11.16;68.20
69589;SHT31;56792;50.644;17.984;2024-02-16T09:06:38;11.24;67.76
69589;SHT31;56792;50.644;17.984;2024-02-16T09:09:09;11.30;67.35
69589;SHT31;56792;50.644;17.984;2024-02-16T09:11:41;11.34;67.65
69589;SHT31;56792;50.644;17.984;2024-02-16T09:14:13;11.39;68.09
69589;SHT31;56792;50.644;17.984;2024-02-16T09:16:44;11.47;67.93
69589;SHT31;56792;50.644;17.984;2024-02-16T09:19:19;11.57;67.53
69589;SHT31;56792;50.644;17.984;2024-02-16T09:21:50;11.63;66.80
69589;SHT31;56792;50.644;17.984;2024-02-16T09:24:21;11.67;66.57
69589;SHT31;56792;50.644;17.984;2024-02-16T09:26:56;11.77;66.54
69589;SHT31;56792;50.644;17.984;2024-02-16T09:29:30;11.88;66.51
69589;SHT31;56792;50.644;17.984;2024-02-16T09:32:01;11.96;65.42
69589;SHT31;56792;50.644;17.984;2024-02-16T09:34:34;12.01;65.85
69589;SHT31;56792;50.644;17.984;2024-02-16T09:37:05;12.06;64.78
69589;SHT31;56792;50.644;17.984;2024-02-16T09:39:38;12.11;65.36
69589;SHT31;56792;50.644;17.984;2024-02-16T09:42:09;12.20;64.59
69589;SHT31;56792;50.644;17.984;2024-02-16T09:44:41;12.30;64.66
69589;SHT31;56792;50.644;17.984;2024-02-16T09:47:13;12.38;64.12
69589;SHT31;56792;50.644;17.984;2024-02-16T09:49:46;12.43;63.42
69589;SHT31;56792;50.644;17.984;2024-02-16T09:52:18;12.46;63.98
69589;SHT31;56792;50.644;17.984;2024-02-16T09:54:50;12.48;64.19
69589;SHT31;56792;50.644;17.984;2024-02-16T09:57:22;12.57;64.40
69589;SHT31;56792;50.644;17.984;2024-02-16T09:59:53;12.70;64.19
69589;SHT31;56792;50.644;17.984;2024-02-16T10:02:24;12.78;64.17
69589;SHT31;56792;50.644;17.984;2024-02-16T10:04:55;12.94;64.08
69589;SHT31;56792;50.644;17.984;2024-02-16T10:07:31;13.02;63.71
69589;SHT31;56792;50.644;17.984;2024-02-16T10:10:03;13.12;63.43
69589;SHT31;56792;50.644;17.984;2024-02-16T10:12:46;13.22;63.52
69589;SHT31;56792;50.644;17.984;2024-02-16T10:15:21;13.37;62.72
69589;SHT31;56792;50.644;17.984;2024-02-16T10:17:59;13.47;62.01
69589;SHT31;56792;50.644;17.984;2024-02-16T10:20:32;13.56;62.12
69589;SHT31;56792;50.644;17.984;2024-02-16T10:23:06;13.70;62.29
69589;SHT31;56792;50.644;17.984;2024-02-16T10:25:39;13.87;61.67
69589;SHT31;56792;50.644;17.984;2024-02-16T10:28:10;13.95;60.77
69589;SHT31;56792;50.644;17.984;2024-02-16T10:30:43;13.98;60.08
69589;SHT31;56792;50.644;17.984;2024-02-16T10:33:16;14.03;60.47
69589;SHT31;56792;50.644;17.984;2024-02-16T10:35:47;14.06;59.60
69589;SHT31;56792;50.644;17.984;2024-02-16T10:38:20;14.15;59.91
69589;SHT31;56792;50.644;17.984;2024-02-16T10:40:53;14.26;59.72
69589;SHT31;56792;50.644;17.984;2024-02-16T10:43:28;14.45;60.42
69589;SHT31;56792;50.644;17.984;2024-02-16T10:46:00;14.58;59.11
69589;SHT31;56792;50.644;17.984;2024-02-16T10:48:33;14.67;59.25
69589;SHT31;56792;50.644;17.984;2024-02-16T10:51:04;14.87;59.40
69589;SHT31;56792;50.644;17.984;2024-02-16T10:53:37;15.06;58.23
69589;SHT31;56792;50.644;17.984;2024-02-16T10:56:10;15.10;57.85
69589;SHT31;56792;50.644;17.984;2024-02-16T10:58:42;15.17;57.68
69589;SHT31;56792;50.644;17.984;2024-02-16T11:01:16;15.23;57.38
69589;SHT31;56792;50.644;17.984;2024-02-16T11:03:48;15.26;56.16
69589;SHT31;56792;50.644;17.984;2024-02-16T11:06:48;15.25;56.69
69589;SHT31;56792;50.644;17.984;2024-02-16T11:09:25;15.38;57.39
69589;SHT31;56792;50.644;17.984;2024-02-16T11:12:00;15.47;56.62
69589;SHT31;56792;50.644;17.984;2024-02-16T11:14:35;15.45;55.82
69589;SHT31;56792;50.644;17.984;2024-02-16T11:17:08;15.51;56.42
69589;SHT31;56792;50.644;17.984;2024-02-16T11:19:41;15.60;55.72
69589;SHT31;56792;50.644;17.984;2024-02-16T11:22:16;15.68;55.92
69589;SHT31;56792;50.644;17.984;2024-02-16T11:24:48;15.80;55.08
69589;SHT31;56792;50.644;17.984;2024-02-16T11:27:22;15.84;54.70
69589;SHT31;56792;50.644;17.984;2024-02-16T11:29:54;15.85;54.27
69589;SHT31;56792;50.644;17.984;2024-02-16T11:32:33;15.93;54.25
69589;SHT31;56792;50.644;17.984;2024-02-16T11:35:07;15.95;53.67
69589;SHT31;56792;50.644;17.984;2024-02-16T11:37:39;15.83;52.53
69589;SHT31;56792;50.644;17.984;2024-02-16T11:40:12;15.68;52.99
69589;SHT31;56792;50.644;17.984;2024-02-16T11:42:44;15.65;53.32
69589;SHT31;56792;50.644;17.984;2024-02-16T11:45:15;15.62;53.72
69589;SHT31;56792;50.644;17.984;2024-02-16T11:47:46;15.64;54.09
69589;SHT31;56792;50.644;17.984;2024-02-16T11:50:17;15.71;54.12
69589;SHT31;56792;50.644;17.984;2024-02-16T11:52:48;15.75;53.54
69589;SHT31;56792;50.644;17.984;2024-02-16T11:55:20;15.81;53.99
69589;SHT31;56792;50.644;17.984;2024-02-16T11:57:51;15.88;53.64
69589;SHT31;56792;50.644;17.984;2024-02-16T12:00:23;15.92;53.89
69589;SHT31;56792;50.644;17.984;2024-02-16T12:03:00;16.03;54.38
69589;SHT31;56792;50.644;17.984;2024-02-16T12:05:34;16.05;53.72
69589;SHT31;56792;50.644;17.984;2024-02-16T12:08:06;16.01;53.49
69589;SHT31;56792;50.644;17.984;2024-02-16T12:10:38;15.99;52.78
69589;SHT31;56792;50.644;17.984;2024-02-16T12:13:10;15.90;53.06
69589;SHT31;56792;50.644;17.984;2024-02-16T12:15:41;15.95;54.05
69589;SHT31;56792;50.644;17.984;2024-02-16T12:18:20;15.96;53.80
69589;SHT31;56792;50.644;17.984;2024-02-16T12:20:59;16.03;53.91
69589;SHT31;56792;50.644;17.984;2024-02-16T12:23:32;16.07;53.68
69589;SHT31;56792;50.644;17.984;2024-02-16T12:26:05;16.03;54.27
69589;SHT31;56792;50.644;17.984;2024-02-16T12:28:36;15.98;53.42
69589;SHT31;56792;50.644;17.984;2024-02-16T12:31:09;15.82;53.46
69589;SHT31;56792;50.644;17.984;2024-02-16T12:33:47;15.82;54.11
69589;SHT31;56792;50.644;17.984;2024-02-16T12:36:19;15.85;53.91
69589;SHT31;56792;50.644;17.984;2024-02-16T12:38:50;15.85;54.31
69589;SHT31;56792;50.644;17.984;2024-02-16T12:41:22;15.86;54.10
69589;SHT31;56792;50.644;17.984;2024-02-16T12:43:53;15.90;54.70
69589;SHT31;56792;50.644;17.984;2024-02-16T12:46:24;15.95;54.49
69589;SHT31;56792;50.644;17.984;2024-02-16T12:48:55;15.93;54.23
69589;SHT31;56792;50.644;17.984;2024-02-16T12:51:27;15.89;54.42
69589;SHT31;56792;50.644;17.984;2024-02-16T12:53:58;15.95;54.46
69589;SHT31;56792;50.644;17.984;2024-02-16T12:56:31;15.93;54.15
69589;SHT31;56792;50.644;17.984;2024-02-16T12:59:02;15.90;54.72
69589;SHT31;56792;50.644;17.984;2024-02-16T13:01:33;15.87;53.50
69589;SHT31;56792;50.644;17.984;2024-02-16T13:04:05;15.75;53.72
69589;SHT31;56792;50.644;17.984;2024-02-16T13:06:37;15.67;54.33
69589;SHT31;56792;50.644;17.984;2024-02-16T13:09:13;15.63;54.44
69589;SHT31;56792;50.644;17.984;2024-02-16T13:11:44;15.59;54.58
69589;SHT31;56792;50.644;17.984;2024-02-16T13:14:28;15.56;54.33
69589;SHT31;56792;50.644;17.984;2024-02-16T13:16:59;15.56;55.08
69589;SHT31;56792;50.644;17.984;2024-02-16T13:19:31;15.60;55.01
69589;SHT31;56792;50.644;17.984;2024-02-16T13:22:02;15.52;54.20
69589;SHT31;56792;50.644;17.984;2024-02-16T13:24:35;15.46;54.96
69589;SHT31;56792;50.644;17.984;2024-02-16T13:27:06;15.44;54.93
69589;SHT31;56792;50.644;17.984;2024-02-16T13:29:38;15.37;54.98
69589;SHT31;56792;50.644;17.984;2024-02-16T13:32:10;15.33;55.48
69589;SHT31;56792;50.644;17.984;2024-02-16T13:34:41;15.30;54.97
69589;SHT31;56792;50.644;17.984;2024-02-16T13:37:12;15.31;55.49
69589;SHT31;56792;50.644;17.984;2024-02-16T13:39:44;15.29;56.01
69589;SHT31;56792;50.644;17.984;2024-02-16T13:42:16;15.23;55.58
69589;SHT31;56792;50.644;17.984;2024-02-16T13:44:47;15.23;55.94
69589;SHT31;56792;50.644;17.984;2024-02-16T13:47:19;15.22;56.79
69589;SHT31;56792;50.644;17.984;2024-02-16T13:49:51;15.15;56.21
69589;SHT31;56792;50.644;17.984;2024-02-16T13:52:24;15.06;55.97
69589;SHT31;56792;50.644;17.984;2024-02-16T13:54:56;15.03;56.05
69589;SHT31;56792;50.644;17.984;2024-02-16T13:57:27;15.00;56.42
69589;SHT31;56792;50.644;17.984;2024-02-16T13:59:58;14.96;56.15
69589;SHT31;56792;50.644;17.984;2024-02-16T14:02:43;14.96;56.02
69589;SHT31;56792;50.644;17.984;2024-02-16T14:05:14;14.95;56.41
69589;SHT31;56792;50.644;17.984;2024-02-16T14:08:05;14.95;56.69
69589;SHT31;56792;50.644;17.984;2024-02-16T14:10:39;14.91;55.81
69589;SHT31;56792;50.644;17.984;2024-02-16T14:13:10;14.89;56.77
69589;SHT31;56792;50.644;17.984;2024-02-16T14:15:42;14.88;56.99
69589;SHT31;56792;50.644;17.984;2024-02-16T14:18:13;14.83;56.40
69589;SHT31;56792;50.644;17.984;2024-02-16T14:20:45;14.79;56.69
69589;SHT31;56792;50.644;17.984;2024-02-16T14:23:16;14.74;56.63
69589;SHT31;56792;50.644;17.984;2024-02-16T14:25:47;14.70;56.46
69589;SHT31;56792;50.644;17.984;2024-02-16T14:28:18;14.67;56.99
69589;SHT31;56792;50.644;17.984;2024-02-16T14:30:50;14.66;57.17
69589;SHT31;56792;50.644;17.984;2024-02-16T14:33:21;14.62;57.15
69589;SHT31;56792;50.644;17.984;2024-02-16T14:35:52;14.55;57.02
69589;SHT31;56792;50.644;17.984;2024-02-16T14:38:25;14.50;57.04
69589;SHT31;56792;50.644;17.984;2024-02-16T14:40:57;14.47;57.38
69589;SHT31;56792;50.644;17.984;2024-02-16T14:43:30;14.44;58.01
69589;SHT31;56792;50.644;17.984;2024-02-16T14:46:03;14.40;57.67
69589;SHT31;56792;50.644;17.984;2024-02-16T14:48:35;14.36;57.75
69589;SHT31;56792;50.644;17.984;2024-02-16T14:51:07;14.31;58.08
69589;SHT31;56792;50.644;17.984;2024-02-16T14:53:38;14.26;58.33
69589;SHT31;56792;50.644;17.984;2024-02-16T14:56:09;14.18;58.49
69589;SHT31;56792;50.644;17.984;2024-02-16T14:58:41;14.15;58.32
69589;SHT31;56792;50.644;17.984;2024-02-16T15:01:12;14.10;58.86
69589;SHT31;56792;50.644;17.984;2024-02-16T15:03:43;14.03;59.10
69589;SHT31;56792;50.644;17.984;2024-02-16T15:06:14;13.96;58.96
69589;SHT31;56792;50.644;17.984;2024-02-16T15:08:45;13.92;59.12
69589;SHT31;56792;50.644;17.984;2024-02-16T15:11:17;13.88;59.19
69589;SHT31;56792;50.644;17.984;2024-02-16T15:13:48;13.81;59.16
69589;SHT31;56792;50.644;17.984;2024-02-16T15:16:19;13.79;59.20
69589;SHT31;56792;50.644;17.984;2024-02-16T15:18:50;13.74;59.30
69589;SHT31;56792;50.644;17.984;2024-02-16T15:21:21;13.67;59.61
69589;SHT31;56792;50.644;17.984;2024-02-16T15:23:53;13.57;60.06
69589;SHT31;56792;50.644;17.984;2024-02-16T15:26:25;13.49;60.06
69589;SHT31;56792;50.644;17.984;2024-02-16T15:28:56;13.43;60.37
69589;SHT31;56792;50.644;17.984;2024-02-16T15:31:27;13.38;60.35
69589;SHT31;56792;50.644;17.984;2024-02-16T15:33:58;13.32;60.65
69589;SHT31;56792;50.644;17.984;2024-02-16T15:36:29;13.21;61.05
69589;SHT31;56792;50.644;17.984;2024-02-16T15:39:01;13.17;61.05
69589;SHT31;56792;50.644;17.984;2024-02-16T15:41:34;13.10;61.37
69589;SHT31;56792;50.644;17.984;2024-02-16T15:44:05;13.02;61.62
69589;SHT31;56792;50.644;17.984;2024-02-16T15:46:38;12.96;61.89
69589;SHT31;56792;50.644;17.984;2024-02-16T15:49:11;12.93;61.85
69589;SHT31;56792;50.644;17.984;2024-02-16T15:51:42;12.86;61.97
69589;SHT31;56792;50.644;17.984;2024-02-16T15:54:13;12.82;62.16